This is the latest recevied weather packets stored in our database for station/object W5GGH. If no packets are shown the sender has not sent any weather packets the latest 1 day(s).
| Time | Temp. | Humidity | Pressure | Rain* | Wind** | Luminosity | Snow |
|---|---|---|---|---|---|---|---|
| 1778029244 | 23.89° C | 64% | 1022.4 hPa | 0 mm | 0.89 m/s, 343° | 8 W/m² | - |
| 1778028941 | 23.89° C | 63% | 1022.3 hPa | 0 mm | 0.89 m/s, 3° | 10 W/m² | - |
| 1778028637 | 24.44° C | 63% | 1022.4 hPa | 0 mm | 1.34 m/s, 77° | 13 W/m² | - |
| 1778028335 | 24.44° C | 62% | 1022.4 hPa | 0 mm | 0.89 m/s, 14° | 17 W/m² | - |
| 1778028031 | 24.44° C | 62% | 1022.3 hPa | 0 mm | 1.79 m/s, 27° | 22 W/m² | - |
| 1778027728 | 25° C | 61% | 1022.1 hPa | 0 mm | 0.89 m/s, 1° | 27 W/m² | - |
| 1778027424 | 25° C | 61% | 1021.9 hPa | 0 mm | 1.34 m/s, 19° | 24 W/m² | - |
| 1778027120 | 25° C | 60% | 1021.9 hPa | 0 mm | 1.34 m/s, 351° | 26 W/m² | - |
| 1778026815 | 25° C | 59% | 1022 hPa | 0 mm | 2.24 m/s, 330° | 36 W/m² | - |
| 1778026512 | 25.56° C | 59% | 1021.9 hPa | 0 mm | 1.34 m/s, 356° | 40 W/m² | - |
| 1778026210 | 25.56° C | 58% | 1021.9 hPa | 0 mm | 2.68 m/s, 33° | 56 W/m² | - |
| 1778025907 | 25.56° C | 58% | 1022 hPa | 0 mm | 0.89 m/s, 26° | 69 W/m² | - |
| 1778025604 | 26.11° C | 57% | 1022 hPa | 0 mm | 1.34 m/s, 26° | 62 W/m² | - |
| 1778025302 | 26.11° C | 57% | 1022 hPa | 0 mm | 0.89 m/s, 25° | 63 W/m² | - |
| 1778024998 | 26.67° C | 58% | 1021.6 hPa | 0 mm | 2.68 m/s, 24° | 83 W/m² | - |
| 1778024696 | 26.67° C | 56% | 1021.5 hPa | 0 mm | 0.89 m/s, 49° | 112 W/m² | - |
| 1778024392 | 26.67° C | 56% | 1021.6 hPa | 0 mm | 3.13 m/s, 10° | 90 W/m² | - |
| 1778024090 | 27.22° C | 58% | 1021.3 hPa | 0 mm | 0.89 m/s, 21° | 88 W/m² | - |
| 1778023787 | 27.22° C | 57% | 1021.3 hPa | 0 mm | 0.89 m/s, 5° | 100 W/m² | - |
| 1778023485 | 27.78° C | 56% | 1021.3 hPa | 0 mm | 1.79 m/s, 17° | 116 W/m² | - |
| 1778023182 | 27.78° C | 56% | 1021.2 hPa | 0 mm | 3.58 m/s, 29° | 136 W/m² | - |
| 1778022879 | 28.33° C | 57% | 1021 hPa | 0 mm | 0.89 m/s, 65° | 118 W/m² | - |
| 1778022577 | 28.89° C | 56% | 1020.9 hPa | 0 mm | 0.89 m/s, 3° | 100 W/m² | - |
| 1778022275 | 29.44° C | 55% | 1021 hPa | 0 mm | 0.89 m/s, 9° | 142 W/m² | - |
| 1778021971 | 30° C | 52% | 1020.7 hPa | 0 mm | 0.89 m/s, 336° | 252 W/m² | - |
* Rain latest hour (hover to see other rain measurements)
** Current wind speed in m/s (hover to see current wind gust speed)